Time;durP1;ratioP1;P1;durP2;ratioP2;P2;SDS_P1;SDS_P2;PMS_P1;PMS_P2;Temp;Humidity;BMP_temperature;BMP_pressure;BME280_temperature;BME280_humidity;BME280_pressure;Samples;Min_cycle;Max_cycle;Signal;HPM_P1;HPM_P2
2024/02/17 00:00:55;;;;;;;10.63;5.03;;;;;;;9.13;100.00;101220.78;5092899;28;20424;-77
2024/02/17 00:03:29;;;;;;;9.13;4.40;;;;;;;9.09;100.00;101216.94;5092178;27;20426;-77
2024/02/17 00:06:03;;;;;;;9.75;4.75;;;;;;;8.98;100.00;101224.16;5091702;28;20421;-77
2024/02/17 00:08:36;;;;;;;10.45;5.03;;;;;;;8.96;100.00;101222.78;5094734;28;20427;-77
2024/02/17 00:11:09;;;;;;;10.80;4.85;;;;;;;9.04;100.00;101218.81;5096729;27;20877;-77
2024/02/17 00:13:43;;;;;;;10.18;4.45;;;;;;;9.04;100.00;101224.22;5089644;27;20423;-77
2024/02/17 00:16:16;;;;;;;10.05;4.65;;;;;;;8.98;100.00;101229.59;5093834;27;20467;-77
2024/02/17 00:18:51;;;;;;;10.35;5.00;;;;;;;8.99;100.00;101241.25;5094037;28;20425;-77
2024/02/17 00:21:24;;;;;;;9.73;4.60;;;;;;;8.96;100.00;101233.63;5091011;28;21248;-77
2024/02/17 00:23:57;;;;;;;10.75;4.20;;;;;;;9.07;100.00;101246.25;5093895;28;20425;-77
2024/02/17 00:26:30;;;;;;;9.75;4.93;;;;;;;8.91;100.00;101247.16;5096001;28;20419;-77
2024/02/17 00:29:04;;;;;;;11.35;4.60;;;;;;;9.06;100.00;101247.34;5094547;27;20902;-78
2024/02/17 00:31:37;;;;;;;10.25;4.65;;;;;;;9.06;100.00;101247.34;5093057;28;20414;-77
2024/02/17 00:34:07;;;;;;;9.90;4.73;;;;;;;8.95;100.00;101253.72;5092867;28;20545;-77
2024/02/17 00:36:40;;;;;;;10.95;4.60;;;;;;;9.04;100.00;101257.63;5093983;28;20438;-77
2024/02/17 00:39:13;;;;;;;9.97;4.67;;;;;;;9.05;100.00;101255.75;5094292;28;20434;-80
2024/02/17 00:41:46;;;;;;;12.13;5.07;;;;;;;9.00;100.00;101251.91;5100165;28;20423;-77
2024/02/17 00:44:19;;;;;;;9.88;4.85;;;;;;;9.05;100.00;101263.88;5094212;27;20439;-77
2024/02/17 00:46:53;;;;;;;10.35;4.70;;;;;;;8.93;100.00;101272.16;5096043;28;20445;-77
2024/02/17 00:49:23;;;;;;;11.98;5.50;;;;;;;8.93;100.00;101266.72;5088813;28;20494;-77
2024/02/17 00:51:51;;;;;;;11.98;5.32;;;;;;;8.86;100.00;101275.06;5093360;27;20423;-77
2024/02/17 00:54:25;;;;;;;10.60;4.97;;;;;;;8.80;100.00;101273.38;5097048;28;20434;-78
2024/02/17 00:56:53;;;;;;;10.95;5.57;;;;;;;8.88;100.00;101277.53;5096627;28;20416;-77
2024/02/17 00:59:26;;;;;;;11.57;5.15;;;;;;;8.90;100.00;101280.81;5094809;28;20434;-78
2024/02/17 01:02:01;;;;;;;11.60;4.88;;;;;;;8.77;100.00;101282.84;5095344;28;20442;-77
2024/02/17 01:04:35;;;;;;;11.23;5.13;;;;;;;8.78;100.00;101273.63;5095680;28;20892;-78
2024/02/17 01:07:08;;;;;;;10.83;4.70;;;;;;;8.77;100.00;101290.13;5094322;28;20420;-78
2024/02/17 01:09:37;;;;;;;10.32;4.20;;;;;;;8.74;100.00;101293.38;5112668;28;20443;-77
2024/02/17 01:12:10;;;;;;;8.30;3.95;;;;;;;8.65;100.00;101288.38;5091528;28;20786;-78
2024/02/17 01:14:43;;;;;;;9.80;4.28;;;;;;;8.53;100.00;101293.09;5094879;28;20420;-77
2024/02/17 01:17:16;;;;;;;11.18;4.72;;;;;;;8.62;100.00;101301.66;5097319;28;20420;-78
2024/02/17 01:19:51;;;;;;;11.52;4.53;;;;;;;8.56;100.00;101305.34;5096114;28;20426;-77
2024/02/17 01:22:25;;;;;;;10.98;4.75;;;;;;;8.45;100.00;101302.50;5094461;28;20812;-77
2024/02/17 01:24:58;;;;;;;12.52;5.07;;;;;;;8.35;100.00;101302.31;5099014;28;20428;-78
2024/02/17 01:27:31;;;;;;;10.38;5.18;;;;;;;8.38;100.00;101309.16;5100268;28;20913;-78
2024/02/17 01:30:06;;;;;;;12.25;5.05;;;;;;;8.38;100.00;101311.84;5099346;28;20806;-78
2024/02/17 01:32:39;;;;;;;12.13;5.00;;;;;;;8.36;100.00;101314.00;5133245;27;20435;-77
2024/02/17 01:35:14;;;;;;;11.25;5.00;;;;;;;8.17;100.00;101322.41;5097228;27;20436;-77
2024/02/17 01:37:42;;;;;;;11.03;4.67;;;;;;;8.10;100.00;101322.56;5098559;28;21000;-78
2024/02/17 01:40:18;;;;;;;9.77;4.30;;;;;;;8.13;100.00;101322.09;5107044;28;20523;-78
2024/02/17 01:42:51;;;;;;;13.00;4.57;;;;;;;8.09;100.00;101322.81;5114098;27;20431;-77
2024/02/17 01:45:24;;;;;;;11.48;4.55;;;;;;;8.03;100.00;101330.03;5099730;28;20931;-77
2024/02/17 01:47:57;;;;;;;10.40;4.65;;;;;;;7.96;100.00;101315.84;5099766;28;20412;-78
2024/02/17 01:50:32;;;;;;;11.02;4.72;;;;;;;7.90;100.00;101316.81;5097564;28;20426;-78
2024/02/17 01:53:06;;;;;;;12.95;5.13;;;;;;;7.90;100.00;101328.50;5131133;27;20430;-78
2024/02/17 01:55:40;;;;;;;15.27;5.00;;;;;;;7.81;100.00;101340.78;5105850;28;20884;-77
2024/02/17 01:58:13;;;;;;;14.32;4.97;;;;;;;7.81;100.00;101332.66;5098213;28;20413;-78
2024/02/17 02:00:41;;;;;;;11.85;4.88;;;;;;;7.77;100.00;101342.34;5098283;28;20850;-77
2024/02/17 02:03:15;;;;;;;11.82;5.03;;;;;;;7.85;100.00;101338.44;5099666;28;20889;-77
2024/02/17 02:05:49;;;;;;;12.60;5.18;;;;;;;7.75;100.00;101337.19;5132486;27;20412;-77
2024/02/17 02:08:23;;;;;;;14.98;5.25;;;;;;;7.68;100.00;101341.94;5095594;28;20766;-77
2024/02/17 02:10:51;;;;;;;11.60;4.70;;;;;;;7.74;100.00;101353.69;5098865;28;20431;-78
2024/02/17 02:13:25;;;;;;;14.38;5.28;;;;;;;7.75;100.00;101350.72;5098032;28;20434;-78
2024/02/17 02:15:59;;;;;;;16.67;5.75;;;;;;;7.72;100.00;101356.63;5098569;28;20427;-77
2024/02/17 02:18:27;;;;;;;13.57;5.78;;;;;;;7.74;100.00;101359.91;5115088;27;20419;-78
2024/02/17 02:20:57;;;;;;;11.77;5.22;;;;;;;7.70;100.00;101356.06;5098999;28;20405;-78
2024/02/17 02:23:30;;;;;;;13.90;5.82;;;;;;;7.70;100.00;101360.66;5099472;28;20427;-77
2024/02/17 02:26:00;;;;;;;15.43;5.68;;;;;;;7.65;100.00;101361.38;5097653;28;20898;-78
2024/02/17 02:28:33;;;;;;;13.77;5.57;;;;;;;7.63;100.00;101367.03;5100268;28;20422;-78
2024/02/17 02:31:07;;;;;;;13.32;5.40;;;;;;;7.53;100.00;101371.47;5095175;28;20420;-78
2024/02/17 02:33:40;;;;;;;13.60;5.07;;;;;;;7.52;100.00;101367.91;5096182;28;20412;-78
2024/02/17 02:36:14;;;;;;;14.20;5.20;;;;;;;7.56;100.00;101362.84;5096019;28;20435;-78
2024/02/17 02:38:42;;;;;;;13.23;5.05;;;;;;;7.56;100.00;101363.66;5095518;28;20451;-77
2024/02/17 02:41:17;;;;;;;13.88;4.68;;;;;;;7.48;100.00;101373.00;5095975;28;20849;-77
2024/02/17 02:43:50;;;;;;;9.65;4.30;;;;;;;7.37;100.00;101373.03;5099325;28;20427;-77
2024/02/17 02:46:23;;;;;;;11.10;4.32;;;;;;;7.36;100.00;101383.06;5104425;28;20490;-77
2024/02/17 02:48:52;;;;;;;12.60;5.20;;;;;;;7.44;100.00;101379.97;5096205;28;20894;-77
2024/02/17 02:51:25;;;;;;;11.70;4.72;;;;;;;7.48;100.00;101400.09;5098254;28;20452;-78
2024/02/17 02:53:58;;;;;;;7.80;3.10;;;;;;;7.27;100.00;101409.69;5093001;28;20783;-77
2024/02/17 02:56:33;;;;;;;9.55;3.00;;;;;;;7.26;100.00;101408.03;5096113;28;21082;-77
2024/02/17 02:59:07;;;;;;;6.82;2.80;;;;;;;7.12;100.00;101410.19;5097429;28;20441;-78
2024/02/17 03:01:35;;;;;;;7.30;2.30;;;;;;;7.10;100.00;101416.91;5098391;27;20417;-77
2024/02/17 03:04:03;;;;;;;7.57;2.50;;;;;;;7.04;100.00;101415.97;5113081;27;20402;-77
2024/02/17 03:06:37;;;;;;;5.53;2.47;;;;;;;7.00;100.00;101417.50;5098367;28;20431;-77
2024/02/17 03:09:10;;;;;;;5.32;1.95;;;;;;;6.94;100.00;101421.16;5103073;28;20429;-78
2024/02/17 03:11:42;;;;;;;7.63;1.98;;;;;;;6.97;100.00;101432.34;5102365;28;20799;-78
2024/02/17 03:14:10;;;;;;;4.95;2.10;;;;;;;6.84;100.00;101429.06;5100363;28;21854;-77
2024/02/17 03:16:43;;;;;;;4.53;2.00;;;;;;;6.88;100.00;101433.75;5099709;27;20896;-78
2024/02/17 03:19:17;;;;;;;7.03;1.90;;;;;;;6.92;100.00;101434.13;5098024;28;20435;-77
2024/02/17 03:21:50;;;;;;;5.13;2.30;;;;;;;6.89;100.00;101438.13;5101358;28;20921;-78
2024/02/17 03:24:23;;;;;;;4.53;1.92;;;;;;;6.86;100.00;101438.56;5099724;28;21084;-78
2024/02/17 03:26:58;;;;;;;6.25;2.00;;;;;;;6.84;100.00;101438.00;5096456;28;20424;-78
2024/02/17 03:29:31;;;;;;;4.15;1.90;;;;;;;6.95;100.00;101447.16;5113214;27;20427;-78
2024/02/17 03:31:59;;;;;;;4.60;1.90;;;;;;;6.84;100.00;101446.13;5096449;28;21168;-78
2024/02/17 03:34:33;;;;;;;3.80;1.73;;;;;;;6.83;100.00;101458.00;5115868;27;20430;-78
2024/02/17 03:37:06;;;;;;;5.00;1.95;;;;;;;6.78;100.00;101455.16;5098309;28;20425;-77
2024/02/17 03:39:40;;;;;;;3.20;1.60;;;;;;;6.81;100.00;101466.34;5100866;27;20455;-78
2024/02/17 03:42:14;;;;;;;3.78;1.70;;;;;;;6.87;100.00;101467.28;5098977;28;20443;-78
2024/02/17 03:44:47;;;;;;;3.50;1.50;;;;;;;6.83;100.00;101465.28;5098945;28;20429;-77
2024/02/17 03:47:16;;;;;;;4.03;1.45;;;;;;;6.77;100.00;101472.47;5095805;28;20400;-78
2024/02/17 03:49:49;;;;;;;2.65;1.30;;;;;;;6.63;100.00;101475.41;5096474;28;20752;-78
2024/02/17 03:52:22;;;;;;;3.03;1.27;;;;;;;6.52;100.00;101481.63;5097686;28;20433;-77
2024/02/17 03:54:55;;;;;;;3.20;1.10;;;;;;;6.50;100.00;101485.59;5111721;27;20425;-78
2024/02/17 03:57:30;;;;;;;2.38;1.02;;;;;;;6.44;100.00;101488.19;5095841;28;20429;-78
2024/02/17 03:59:58;;;;;;;3.17;1.20;;;;;;;6.37;100.00;101494.75;5076998;28;20784;-77
2024/02/17 04:02:39;;;;;;;2.30;1.30;;;;;;;6.30;100.00;101501.06;5102427;28;20408;-77
2024/02/17 04:05:13;;;;;;;3.08;1.30;;;;;;;6.26;100.00;101497.19;5096245;28;20421;-77
2024/02/17 04:07:46;;;;;;;1.83;1.10;;;;;;;6.18;100.00;101512.91;5096020;28;20416;-77
2024/02/17 04:10:19;;;;;;;4.17;1.20;;;;;;;6.15;100.00;101505.28;5096248;28;20416;-78
2024/02/17 04:12:49;;;;;;;1.70;0.85;;;;;;;6.10;100.00;101514.03;5095337;28;20857;-77
2024/02/17 04:15:22;;;;;;;1.73;0.80;;;;;;;6.04;100.00;101523.09;5110237;27;20422;-77
2024/02/17 04:17:56;;;;;;;2.10;0.90;;;;;;;5.86;100.00;101522.03;5094054;28;20420;-77
2024/02/17 04:20:24;;;;;;;1.40;1.00;;;;;;;5.89;100.00;101539.66;5097305;28;20409;-77
2024/02/17 04:22:58;;;;;;;2.53;0.90;;;;;;;5.93;100.00;101538.16;5129629;27;20424;-77
2024/02/17 04:25:31;;;;;;;1.30;0.75;;;;;;;5.78;100.00;101554.75;5115545;27;21305;-77
2024/02/17 04:28:07;;;;;;;1.00;0.60;;;;;;;5.83;100.00;101548.66;5095433;28;20409;-77
2024/02/17 04:30:40;;;;;;;0.90;0.60;;;;;;;5.88;100.00;101546.94;5098170;28;20412;-77
2024/02/17 04:33:13;;;;;;;1.13;0.60;;;;;;;5.92;100.00;101553.56;5111121;27;20442;-78
2024/02/17 04:35:47;;;;;;;2.10;0.50;;;;;;;5.85;100.00;101551.97;5092075;28;20424;-77
2024/02/17 04:38:20;;;;;;;1.90;0.50;;;;;;;5.89;100.00;101563.97;5112303;27;21106;-77
2024/02/17 04:40:53;;;;;;;1.40;0.55;;;;;;;5.84;100.00;101561.13;5096000;28;20425;-77
2024/02/17 04:43:28;;;;;;;2.00;0.50;;;;;;;5.75;100.00;101571.41;5097743;28;20421;-77
2024/02/17 04:46:01;;;;;;;0.90;0.50;;;;;;;5.73;100.00;101570.81;5098027;28;20425;-78
2024/02/17 04:48:34;;;;;;;1.50;0.50;;;;;;;5.77;100.00;101586.34;5096953;28;20955;-77
2024/02/17 04:51:07;;;;;;;1.00;0.50;;;;;;;5.82;100.00;101588.34;5097942;28;20413;-77
2024/02/17 04:53:41;;;;;;;0.70;0.40;;;;;;;5.79;100.00;101592.34;5095284;28;20436;-77
2024/02/17 04:56:14;;;;;;;1.48;0.40;;;;;;;5.79;100.00;101599.63;5095210;28;20446;-77
2024/02/17 04:58:48;;;;;;;1.07;0.50;;;;;;;5.72;100.00;101605.09;5109815;27;20422;-77
2024/02/17 05:01:23;;;;;;;1.45;0.50;;;;;;;5.83;100.00;101602.69;5101490;28;20412;-78
2024/02/17 05:03:56;;;;;;;1.73;0.50;;;;;;;5.75;100.00;101604.63;5096592;28;20861;-77
2024/02/17 05:06:29;;;;;;;1.30;0.50;;;;;;;5.68;100.00;101612.00;5094104;28;20785;-78
2024/02/17 05:08:57;;;;;;;0.77;0.50;;;;;;;5.57;100.00;101620.84;5107621;28;20790;-77
2024/02/17 05:11:30;;;;;;;0.47;0.45;;;;;;;5.55;100.00;101610.28;5095097;28;20437;-77
2024/02/17 05:14:05;;;;;;;1.97;0.60;;;;;;;5.51;100.00;101616.31;5096097;28;20436;-77
2024/02/17 05:16:38;;;;;;;0.90;0.50;;;;;;;5.56;100.00;101627.28;5094955;28;20408;-77
2024/02/17 05:19:13;;;;;;;0.60;0.40;;;;;;;5.56;100.00;101644.28;5094185;28;20433;-77
2024/02/17 05:21:46;;;;;;;1.65;0.60;;;;;;;5.65;100.00;101647.56;5093830;28;20449;-77
2024/02/17 05:24:14;;;;;;;0.82;0.50;;;;;;;5.63;100.00;101657.75;5095117;28;20401;-78
2024/02/17 05:26:48;;;;;;;1.30;0.60;;;;;;;5.60;100.00;101655.50;5092654;28;20427;-77
2024/02/17 05:29:22;;;;;;;2.28;1.02;;;;;;;5.57;100.00;101672.16;5093391;28;20433;-77
2024/02/17 05:31:50;;;;;;;2.45;0.45;;;;;;;5.55;100.00;101679.63;5092928;28;20425;-77
2024/02/17 05:34:23;;;;;;;2.20;0.68;;;;;;;5.49;100.00;101665.13;5095597;28;20424;-77
2024/02/17 05:36:57;;;;;;;2.70;0.50;;;;;;;5.44;100.00;101673.06;5100337;28;20433;-77
2024/02/17 05:39:31;;;;;;;2.83;0.70;;;;;;;5.48;100.00;101678.88;5093571;28;20414;-77
2024/02/17 05:42:04;;;;;;;2.83;0.60;;;;;;;5.37;100.00;101681.25;5110590;28;20424;-77
2024/02/17 05:44:33;;;;;;;1.30;0.70;;;;;;;5.40;100.00;101675.41;5094785;28;20421;-77
2024/02/17 05:47:07;;;;;;;2.53;0.80;;;;;;;5.34;100.00;101689.75;5111045;28;20774;-77
2024/02/17 05:49:40;;;;;;;4.80;0.85;;;;;;;5.31;100.00;101684.00;5096604;28;20420;-77
2024/02/17 05:52:13;;;;;;;3.00;1.08;;;;;;;5.40;100.00;101688.91;5109116;28;20425;-77
2024/02/17 05:54:46;;;;;;;3.10;0.90;;;;;;;5.27;100.00;101689.00;5099385;28;20420;-77
2024/02/17 05:57:19;;;;;;;2.20;0.70;;;;;;;5.25;100.00;101702.72;5095417;28;20777;-77
2024/02/17 05:59:56;;;;;;;2.60;0.60;;;;;;;5.25;100.00;101710.81;5096748;28;20500;-77
2024/02/17 06:02:34;;;;;;;2.20;0.60;;;;;;;5.30;100.00;101703.94;5094861;28;20429;-77
2024/02/17 06:05:08;;;;;;;2.33;0.70;;;;;;;5.32;100.00;101710.75;5096824;28;20427;-77
2024/02/17 06:07:41;;;;;;;3.40;1.00;;;;;;;5.31;100.00;101713.69;5098913;28;20420;-78
2024/02/17 06:10:15;;;;;;;2.83;0.70;;;;;;;5.10;100.00;101723.78;5094314;28;20420;-78
2024/02/17 06:12:49;;;;;;;2.58;0.63;;;;;;;5.17;100.00;101729.16;5097999;28;20412;-77
2024/02/17 06:15:24;;;;;;;2.10;0.70;;;;;;;5.09;100.00;101732.91;5096288;28;20429;-77
2024/02/17 06:23:30;;;;;;;5.28;0.93;;;;;;;4.98;100.00;101755.19;5112963;27;20429;-77
2024/02/17 06:25:59;;;;;;;2.97;0.70;;;;;;;4.89;100.00;101760.03;5103211;27;20428;-77
2024/02/17 06:28:32;;;;;;;3.58;0.70;;;;;;;4.84;100.00;101771.44;5103742;28;20422;-77
2024/02/17 06:31:01;;;;;;;7.05;1.20;;;;;;;4.83;100.00;101775.16;5105009;28;20422;-77
2024/02/17 06:33:31;;;;;;;5.22;1.20;;;;;;;4.89;100.00;101781.59;5099550;28;20421;-78
2024/02/17 06:36:06;;;;;;;7.75;1.13;;;;;;;4.91;100.00;101787.59;5106343;27;20431;-77
2024/02/17 06:38:40;;;;;;;10.77;1.20;;;;;;;4.91;100.00;101795.69;5101431;28;20423;-77
2024/02/17 06:41:14;;;;;;;6.95;1.25;;;;;;;4.99;100.00;101800.84;5097979;28;20421;-77
2024/02/17 06:43:47;;;;;;;9.40;1.33;;;;;;;5.00;100.00;101815.16;5096468;28;20412;-77
2024/02/17 06:46:22;;;;;;;7.50;1.23;;;;;;;4.97;100.00;101818.28;5101857;28;20514;-77
2024/02/17 06:48:55;;;;;;;9.77;1.15;;;;;;;4.96;100.00;101824.72;5097490;28;20431;-77
2024/02/17 06:51:23;;;;;;;8.45;1.40;;;;;;;4.99;100.00;101827.00;5095576;28;20417;-77
2024/02/17 06:53:57;;;;;;;8.98;1.40;;;;;;;4.93;100.00;101823.28;5099680;28;20417;-77
2024/02/17 06:56:29;;;;;;;11.52;1.30;;;;;;;5.10;100.00;101832.53;5095654;28;20420;-77
2024/02/17 06:58:57;;;;;;;8.63;1.10;;;;;;;5.04;100.00;101835.25;5095707;28;20408;-77
2024/02/17 07:01:32;;;;;;;6.60;1.20;;;;;;;5.07;100.00;101840.25;5097853;28;20449;-78
2024/02/17 07:04:05;;;;;;;9.35;1.52;;;;;;;5.03;100.00;101844.41;5100089;28;20414;-77
2024/02/17 07:06:38;;;;;;;10.52;1.17;;;;;;;5.09;100.00;101846.25;5098403;27;20429;-77
2024/02/17 07:09:07;;;;;;;8.80;1.50;;;;;;;5.08;100.00;101850.81;5096824;28;20405;-77
2024/02/17 07:11:40;;;;;;;11.38;1.63;;;;;;;5.10;100.00;101854.13;5099256;28;20421;-77
2024/02/17 07:14:13;;;;;;;5.88;1.27;;;;;;;5.17;100.00;101862.19;5097266;28;20420;-77
2024/02/17 07:16:48;;;;;;;8.95;1.42;;;;;;;5.05;100.00;101848.53;5094670;28;20965;-77
2024/02/17 07:19:21;;;;;;;8.30;1.60;;;;;;;5.10;100.00;101850.59;5096486;28;20427;-77
2024/02/17 07:21:49;;;;;;;8.67;1.23;;;;;;;5.24;100.00;101865.69;5098523;28;20719;-77
2024/02/17 07:24:18;;;;;;;8.38;1.40;;;;;;;5.18;100.00;101866.56;5097132;28;20781;-77
2024/02/17 07:26:53;;;;;;;11.43;1.60;;;;;;;5.16;100.00;101862.41;5111867;27;20427;-78
2024/02/17 07:29:26;;;;;;;15.45;1.50;;;;;;;5.14;100.00;101865.34;5096044;27;20444;-77
2024/02/17 07:32:01;;;;;;;11.57;1.38;;;;;;;5.11;100.00;101871.97;5109492;27;20429;-77
2024/02/17 07:34:30;;;;;;;11.13;1.52;;;;;;;5.21;100.00;101873.41;5097559;28;20404;-77
2024/02/17 07:37:03;;;;;;;8.73;1.30;;;;;;;5.21;100.00;101866.13;5096331;27;20412;-77
2024/02/17 07:39:32;;;;;;;8.88;1.40;;;;;;;5.30;100.00;101877.50;5098292;28;20953;-77
2024/02/17 07:42:00;;;;;;;11.85;1.50;;;;;;;5.15;100.00;101877.78;5098179;28;20891;-77
2024/02/17 07:44:28;;;;;;;6.90;1.30;;;;;;;5.23;100.00;101887.50;5097394;27;20431;-77
2024/02/17 07:46:58;;;;;;;12.20;1.48;;;;;;;5.26;100.00;101900.56;5130513;27;21012;-77
2024/02/17 07:49:28;;;;;;;12.13;1.38;;;;;;;5.27;100.00;101910.31;5097229;28;20404;-78
2024/02/17 07:52:01;;;;;;;9.90;1.60;;;;;;;5.39;100.00;101915.88;5098310;28;20416;-77
2024/02/17 07:54:34;;;;;;;12.87;1.80;;;;;;;5.35;100.00;101917.34;5096889;28;20418;-78
2024/02/17 07:57:08;;;;;;;12.88;2.03;;;;;;;5.28;100.00;101929.00;5099519;28;20412;-78
2024/02/17 07:59:38;;;;;;;10.07;1.67;;;;;;;5.16;100.00;101929.88;5096832;28;20414;-78
2024/02/17 08:02:12;;;;;;;14.18;2.03;;;;;;;5.19;100.00;101940.25;5098186;28;20420;-78
2024/02/17 08:04:46;;;;;;;8.77;1.45;;;;;;;5.25;100.00;101945.63;5100899;27;20475;-78
2024/02/17 08:07:20;;;;;;;15.25;1.48;;;;;;;5.33;100.00;101955.38;5098854;28;21127;-78
2024/02/17 08:09:53;;;;;;;10.60;1.75;;;;;;;5.21;100.00;101965.16;5097460;28;20765;-78
2024/02/17 08:12:26;;;;;;;12.57;1.63;;;;;;;5.39;100.00;101951.81;5098120;28;20419;-78
2024/02/17 08:14:59;;;;;;;16.77;1.60;;;;;;;5.40;100.00;101960.72;5098062;28;20435;-78
2024/02/17 08:17:40;;;;;;;11.25;1.63;;;;;;;5.42;100.00;101967.56;5096091;28;20440;-78
2024/02/17 08:20:11;;;;;;;13.10;2.15;;;;;;;5.44;100.00;101968.19;5092632;28;20422;-78
2024/02/17 08:22:44;;;;;;;10.02;2.03;;;;;;;5.48;100.00;101970.47;5097986;28;20416;-78
2024/02/17 08:25:17;;;;;;;12.80;1.80;;;;;;;5.47;100.00;101974.19;5098777;28;20425;-78
2024/02/17 08:27:50;;;;;;;10.35;1.70;;;;;;;5.61;100.00;101978.50;5096479;28;20440;-78
2024/02/17 08:30:23;;;;;;;13.50;1.60;;;;;;;5.69;100.00;101985.53;5093118;27;20429;-78
2024/02/17 08:32:57;;;;;;;14.00;2.10;;;;;;;5.56;100.00;101994.53;5114289;27;20443;-78
2024/02/17 08:35:31;;;;;;;12.10;1.65;;;;;;;5.54;100.00;102000.13;5098190;28;20439;-78
2024/02/17 08:38:05;;;;;;;11.65;1.50;;;;;;;5.45;100.00;102012.22;5094831;27;20421;-78
2024/02/17 08:40:38;;;;;;;18.88;2.28;;;;;;;5.47;100.00;102009.28;5094157;27;20416;-78
2024/02/17 08:43:12;;;;;;;11.33;1.60;;;;;;;5.51;100.00;102013.22;5100948;28;21226;-79
2024/02/17 08:45:45;;;;;;;12.93;1.60;;;;;;;5.34;100.00;102018.28;5112686;27;20410;-77
2024/02/17 08:48:18;;;;;;;14.20;2.00;;;;;;;5.36;100.00;102017.03;5094735;28;20414;-77
2024/02/17 08:50:53;;;;;;;10.00;1.70;;;;;;;5.44;100.00;102026.75;5095660;28;20410;-76
2024/02/17 08:53:26;;;;;;;11.32;1.30;;;;;;;5.32;100.00;102031.97;5098213;28;20427;-77
2024/02/17 08:55:59;;;;;;;11.83;1.73;;;;;;;5.62;100.00;102044.97;5097572;28;20414;-76
2024/02/17 08:58:28;;;;;;;13.82;1.58;;;;;;;5.58;100.00;102039.19;5091601;28;20424;-76
2024/02/17 09:01:01;;;;;;;13.65;1.80;;;;;;;5.59;100.00;102059.75;5089564;28;20404;-77
2024/02/17 09:03:30;;;;;;;12.20;1.50;;;;;;;5.65;100.00;102057.22;5104534;28;20434;-77
2024/02/17 09:06:05;;;;;;;7.45;1.40;;;;;;;5.66;100.00;102057.00;5091344;28;21185;-76
2024/02/17 09:08:39;;;;;;;13.10;1.98;;;;;;;5.69;100.00;102064.69;5091423;28;20416;-77
2024/02/17 09:11:12;;;;;;;11.85;1.73;;;;;;;5.72;100.00;102072.38;5098418;28;20433;-78
2024/02/17 09:13:41;;;;;;;10.13;1.40;;;;;;;5.71;100.00;102073.41;5094227;28;20422;-77
2024/02/17 09:16:14;;;;;;;14.15;1.85;;;;;;;5.75;100.00;102092.72;5106780;28;20768;-77
2024/02/17 09:18:47;;;;;;;14.38;1.83;;;;;;;5.72;100.00;102096.69;5094818;28;20433;-77
2024/02/17 09:21:22;;;;;;;12.07;1.50;;;;;;;5.79;100.00;102100.19;5090703;28;20418;-77
2024/02/17 09:23:55;;;;;;;14.27;1.85;;;;;;;5.79;100.00;102102.06;5090866;28;20437;-77
2024/02/17 09:26:28;;;;;;;11.95;1.75;;;;;;;5.69;100.00;102112.47;5097385;28;20424;-76
2024/02/17 09:29:02;;;;;;;12.13;1.70;;;;;;;5.56;100.00;102111.47;5091460;28;20429;-76
2024/02/17 09:31:36;;;;;;;11.45;2.33;;;;;;;5.43;100.00;102122.31;5093335;28;20409;-76
2024/02/17 09:34:10;;;;;;;15.00;2.28;;;;;;;5.48;100.00;102124.38;5092025;28;20426;-77
2024/02/17 09:36:44;;;;;;;15.73;1.90;;;;;;;5.57;100.00;102121.22;5090017;28;20428;-77
2024/02/17 09:39:18;;;;;;;11.37;1.80;;;;;;;5.61;100.00;102141.38;5094689;28;20429;-77
2024/02/17 09:41:51;;;;;;;11.10;1.63;;;;;;;5.43;100.00;102125.00;5126624;27;20426;-76
2024/02/17 09:44:24;;;;;;;18.63;2.00;;;;;;;5.56;100.00;102135.75;5091825;28;20435;-78
2024/02/17 09:46:58;;;;;;;12.50;2.00;;;;;;;5.52;100.00;102136.41;5092510;28;20468;-77
2024/02/17 09:49:35;;;;;;;12.68;1.80;;;;;;;5.62;100.00;102139.50;5106034;27;20435;-76
2024/02/17 09:52:05;;;;;;;13.98;1.92;;;;;;;5.61;100.00;102145.97;5096863;28;20425;-76
2024/02/17 09:54:38;;;;;;;13.52;1.70;;;;;;;5.75;100.00;102152.16;5129484;27;20429;-77
2024/02/17 09:57:12;;;;;;;10.87;1.50;;;;;;;5.64;100.00;102152.81;5098489;28;20451;-78
2024/02/17 09:59:46;;;;;;;13.55;1.80;;;;;;;5.75;100.00;102163.78;5099318;28;20420;-78
2024/02/17 10:02:19;;;;;;;12.63;2.00;;;;;;;5.89;100.00;102159.19;5090183;28;20412;-78
2024/02/17 10:04:56;;;;;;;15.05;1.95;;;;;;;5.98;100.00;102158.97;5099366;28;20413;-77
2024/02/17 10:07:31;;;;;;;21.35;2.00;;;;;;;6.03;100.00;102162.69;5094088;28;20794;-78
2024/02/17 10:10:04;;;;;;;9.80;1.58;;;;;;;6.08;100.00;102162.91;5095798;28;20424;-78
2024/02/17 10:12:47;;;;;;;15.25;2.38;;;;;;;5.95;100.00;102174.56;5095926;27;20426;-78
2024/02/17 10:15:16;;;;;;;14.52;1.80;;;;;;;5.99;100.00;102177.69;5091665;28;20911;-78
2024/02/17 10:17:50;;;;;;;18.00;2.13;;;;;;;6.02;100.00;102187.25;5094693;28;20431;-79
2024/02/17 10:20:23;;;;;;;16.60;2.33;;;;;;;5.92;100.00;102193.06;5096115;27;20420;-78
2024/02/17 10:22:58;;;;;;;13.10;1.85;;;;;;;6.08;100.00;102198.03;5096064;28;20903;-78
2024/02/17 10:25:34;;;;;;;13.05;2.05;;;;;;;6.17;100.00;102195.91;5094258;28;20421;-78
2024/02/17 10:28:08;;;;;;;14.93;2.10;;;;;;;6.36;100.00;102199.59;5091155;28;20428;-77
2024/02/17 10:30:41;;;;;;;14.25;2.10;;;;;;;6.29;100.00;102198.81;5094151;28;20478;-77
2024/02/17 10:33:15;;;;;;;14.40;1.95;;;;;;;6.37;100.00;102203.16;5100800;27;20408;-77
2024/02/17 10:35:49;;;;;;;16.15;2.35;;;;;;;6.38;100.00;102202.94;5098244;28;20435;-77
2024/02/17 10:38:25;;;;;;;15.77;2.20;;;;;;;6.24;100.00;102199.47;5098018;28;20426;-77
2024/02/17 10:40:58;;;;;;;17.08;2.25;;;;;;;6.13;100.00;102210.91;5093498;28;20429;-76
2024/02/17 10:43:36;;;;;;;15.93;2.28;;;;;;;6.03;100.00;102210.53;5094815;28;20424;-77
2024/02/17 10:46:17;;;;;;;17.08;2.42;;;;;;;6.17;100.00;102216.72;5093161;28;20428;-77
2024/02/17 10:48:59;;;;;;;17.60;2.00;;;;;;;6.23;100.00;102219.41;5102295;28;20430;-77
2024/02/17 10:51:32;;;;;;;17.00;2.07;;;;;;;6.17;100.00;102222.13;5095783;28;20492;-77
2024/02/17 10:54:07;;;;;;;15.18;2.60;;;;;;;6.10;100.00;102227.56;5096012;28;20925;-76
2024/02/17 10:56:35;;;;;;;11.15;1.92;;;;;;;6.13;100.00;102238.78;5098532;28;20408;-77
2024/02/17 10:59:11;;;;;;;13.60;2.03;;;;;;;6.16;100.00;102233.97;5102017;27;20431;-78
2024/02/17 11:01:45;;;;;;;13.73;2.30;;;;;;;6.31;100.00;102237.25;5095908;28;20420;-78
2024/02/17 11:04:19;;;;;;;16.13;2.15;;;;;;;6.32;100.00;102246.22;5092592;27;20430;-77
2024/02/17 11:06:54;;;;;;;16.95;2.60;;;;;;;6.34;100.00;102244.13;5088244;28;20674;-76
2024/02/17 11:09:29;;;;;;;15.20;2.17;;;;;;;6.21;100.00;102250.41;5090372;28;20420;-77
2024/02/17 11:12:32;;;;;;;15.85;2.55;;;;;;;6.27;100.00;102253.09;5093320;28;20434;-78
2024/02/17 11:15:08;;;;;;;13.68;2.00;;;;;;;6.37;100.00;102249.13;5109549;27;20427;-77
2024/02/17 11:17:44;;;;;;;14.38;2.35;;;;;;;6.20;100.00;102259.56;5092831;28;20425;-77
2024/02/17 11:20:14;;;;;;;16.17;2.50;;;;;;;6.12;100.00;102256.03;5107771;27;20440;-77
2024/02/17 11:22:54;;;;;;;16.13;2.60;;;;;;;6.13;100.00;102264.97;5094308;28;20425;-76
2024/02/17 11:25:31;;;;;;;14.65;2.28;;;;;;;6.07;100.00;102261.25;5095758;28;20424;-77
2024/02/17 11:28:16;;;;;;;14.77;2.45;;;;;;;6.03;100.00;102275.41;5095010;27;20439;-76
2024/02/17 11:30:49;;;;;;;14.38;2.70;;;;;;;6.01;100.00;102277.47;5092073;28;20912;-77
2024/02/17 11:33:27;;;;;;;17.55;2.53;;;;;;;6.19;100.00;102279.53;5092330;28;20430;-78
2024/02/17 11:36:02;;;;;;;19.63;2.60;;;;;;;6.30;100.00;102276.19;5092386;28;20421;-76
2024/02/17 11:38:32;;;;;;;17.52;2.80;;;;;;;6.15;100.00;102281.81;5094135;28;20425;-76
2024/02/17 11:41:06;;;;;;;15.15;2.50;;;;;;;6.30;100.00;102292.41;5097756;28;20416;-77
2024/02/17 11:43:39;;;;;;;17.38;2.85;;;;;;;6.13;100.00;102292.00;5093553;28;20427;-78
2024/02/17 11:46:15;;;;;;;17.63;2.53;;;;;;;6.03;100.00;102292.44;5098988;28;20428;-81
2024/02/17 11:48:43;;;;;;;13.73;2.70;;;;;;;6.08;100.00;102302.63;5098178;27;20416;-78
2024/02/17 11:51:22;;;;;;;15.82;2.60;;;;;;;6.32;100.00;102309.22;5095894;28;20416;-78
2024/02/17 11:53:52;;;;;;;16.17;2.75;;;;;;;6.21;100.00;102312.59;5090817;28;20416;-79